createdAt,value
2023-03-06T00:00:24.437Z,63.13
2023-03-06T00:02:51.762Z,63.12
2023-03-06T00:05:18.409Z,63.17
2023-03-06T00:07:44.553Z,62.96
2023-03-06T00:10:10.737Z,62.88
2023-03-06T00:12:36.884Z,63.16
2023-03-06T00:15:05.255Z,62.96
2023-03-06T00:17:31.760Z,63.14
2023-03-06T00:19:57.973Z,63.26
2023-03-06T00:22:24.093Z,62.93
2023-03-06T00:24:50.289Z,63.09
2023-03-06T00:27:16.498Z,63.01
2023-03-06T00:29:42.643Z,63.17
2023-03-06T00:32:08.798Z,63.14
2023-03-06T00:34:34.951Z,63.06
2023-03-06T00:37:01.132Z,63.23
2023-03-06T00:39:27.244Z,62.96
2023-03-06T00:41:53.367Z,63.23
2023-03-06T00:44:19.459Z,63.13
2023-03-06T00:46:45.585Z,62.98
2023-03-06T00:49:11.798Z,62.99
2023-03-06T00:51:38.001Z,63.18
2023-03-06T00:54:04.207Z,63.30
2023-03-06T00:56:30.368Z,63.20
2023-03-06T00:58:56.537Z,63.24
2023-03-06T01:01:22.691Z,63.05
2023-03-06T01:03:48.953Z,63.01
2023-03-06T01:06:15.065Z,63.17
2023-03-06T01:08:41.261Z,63.16
2023-03-06T01:11:07.399Z,62.91
2023-03-06T01:13:33.596Z,63.17
2023-03-06T01:15:59.777Z,63.23
2023-03-06T01:18:26.050Z,63.33
2023-03-06T01:20:52.197Z,63.00
2023-03-06T01:23:18.350Z,62.83
2023-03-06T01:25:44.520Z,63.24
2023-03-06T01:28:10.718Z,63.36
2023-03-06T01:30:36.863Z,62.98
2023-03-06T01:33:03.050Z,63.38
2023-03-06T01:35:29.179Z,63.21
2023-03-06T01:37:55.360Z,63.15
2023-03-06T01:40:21.488Z,63.12
2023-03-06T01:42:47.609Z,63.08
2023-03-06T01:45:13.801Z,63.29
2023-03-06T01:47:40.005Z,63.11
2023-03-06T01:50:06.131Z,63.15
2023-03-06T01:52:32.235Z,63.06
2023-03-06T01:54:58.369Z,63.32
2023-03-06T01:57:24.488Z,63.07
2023-03-06T01:59:50.677Z,63.34
2023-03-06T02:02:17.988Z,63.35
2023-03-06T02:04:44.188Z,62.98
2023-03-06T02:07:10.316Z,63.33
2023-03-06T02:09:36.519Z,62.96
2023-03-06T02:12:02.700Z,63.22
2023-03-06T02:14:28.814Z,62.85
2023-03-06T02:16:55.062Z,63.03
2023-03-06T02:19:21.234Z,63.04
2023-03-06T02:21:47.339Z,62.95
2023-03-06T02:24:14.366Z,63.29
2023-03-06T02:26:40.481Z,63.20
2023-03-06T02:29:06.669Z,62.70
2023-03-06T02:31:32.876Z,63.12
2023-03-06T02:33:58.990Z,62.89
2023-03-06T02:36:25.135Z,63.22
2023-03-06T02:38:51.314Z,62.97
2023-03-06T02:41:17.516Z,63.17
2023-03-06T02:43:43.623Z,62.83
2023-03-06T02:46:09.815Z,62.83
2023-03-06T02:48:36.067Z,63.07
2023-03-06T02:51:02.192Z,62.90
2023-03-06T02:53:28.374Z,63.20
2023-03-06T02:55:56.876Z,62.97
2023-03-06T02:58:23.074Z,63.08
2023-03-06T03:00:49.195Z,62.76
2023-03-06T03:03:15.391Z,63.08
2023-03-06T03:05:41.523Z,62.84
2023-03-06T03:08:07.730Z,62.92
2023-03-06T03:10:36.890Z,63.11
2023-03-06T03:13:03.051Z,62.93
2023-03-06T03:15:29.283Z,62.96
2023-03-06T03:17:55.453Z,62.88
2023-03-06T03:20:21.572Z,63.16
2023-03-06T03:22:47.699Z,63.04
2023-03-06T03:25:13.887Z,63.06
2023-03-06T03:27:40.008Z,62.98
2023-03-06T03:30:06.160Z,63.15
2023-03-06T03:32:41.341Z,62.82
2023-03-06T03:35:07.546Z,62.76
2023-03-06T03:37:33.660Z,62.97
2023-03-06T03:39:59.808Z,63.01
2023-03-06T03:42:25.980Z,62.97
2023-03-06T03:44:52.213Z,62.89
2023-03-06T03:47:18.358Z,62.98
2023-03-06T03:49:44.560Z,62.74
2023-03-06T03:52:10.697Z,63.03
2023-03-06T03:54:39.122Z,62.94
2023-03-06T03:57:05.338Z,62.99
2023-03-06T03:59:31.528Z,62.78
2023-03-06T04:01:57.725Z,62.93
2023-03-06T04:04:23.863Z,63.02
2023-03-06T04:06:49.987Z,62.79
2023-03-06T04:09:16.112Z,63.01
2023-03-06T04:11:42.405Z,62.94
2023-03-06T04:14:08.597Z,63.02
2023-03-06T04:16:34.875Z,62.75
2023-03-06T04:19:01.107Z,63.05
2023-03-06T04:21:27.236Z,62.91
2023-03-06T04:23:53.424Z,62.84
2023-03-06T04:26:19.546Z,62.68
2023-03-06T04:28:45.704Z,63.21
2023-03-06T04:31:11.864Z,62.84
2023-03-06T04:33:37.986Z,62.70
2023-03-06T04:36:04.181Z,62.70
2023-03-06T04:38:30.333Z,63.03
2023-03-06T04:40:56.460Z,63.04
2023-03-06T04:43:22.737Z,63.06
2023-03-06T04:45:48.835Z,62.99
2023-03-06T04:48:15.037Z,62.75
2023-03-06T04:50:41.154Z,62.94
2023-03-06T04:53:07.446Z,62.81
2023-03-06T04:55:33.608Z,62.85
2023-03-06T04:57:59.780Z,62.97
2023-03-06T05:00:25.970Z,62.84
2023-03-06T05:02:52.210Z,62.77
2023-03-06T05:05:18.390Z,62.87
2023-03-06T05:07:44.491Z,62.76
2023-03-06T05:10:10.639Z,62.85
2023-03-06T05:12:36.733Z,62.75
2023-03-06T05:15:02.929Z,62.93
2023-03-06T05:17:29.251Z,62.73
2023-03-06T05:19:55.376Z,62.86
2023-03-06T05:22:21.517Z,62.76
2023-03-06T05:24:47.722Z,62.55
2023-03-06T05:27:17.013Z,62.46
2023-03-06T05:29:43.266Z,62.61
2023-03-06T05:32:09.691Z,62.80
2023-03-06T05:34:35.986Z,62.90
2023-03-06T05:37:02.195Z,62.79
2023-03-06T05:39:28.425Z,62.57
2023-03-06T05:41:54.663Z,62.81
2023-03-06T05:44:23.622Z,62.84
2023-03-06T05:46:49.883Z,62.73
2023-03-06T05:49:16.206Z,62.70
2023-03-06T05:54:23.452Z,62.67
2023-03-06T05:56:49.695Z,62.79
2023-03-06T05:59:15.919Z,62.80
2023-03-06T06:01:42.119Z,62.73
2023-03-06T06:04:08.236Z,62.71
2023-03-06T06:06:34.420Z,62.63
2023-03-06T06:09:00.533Z,62.69
2023-03-06T06:11:26.647Z,62.56
2023-03-06T06:13:52.778Z,62.56
2023-03-06T06:16:18.925Z,62.72
2023-03-06T06:18:45.178Z,62.75
2023-03-06T06:21:11.296Z,62.66
2023-03-06T06:23:37.436Z,62.74
2023-03-06T06:26:03.537Z,62.68
2023-03-06T06:28:29.839Z,62.34
2023-03-06T06:30:56.010Z,62.27
2023-03-06T06:33:22.154Z,62.66
2023-03-06T06:35:48.365Z,62.59
2023-03-06T06:38:14.547Z,62.52
2023-03-06T06:40:40.658Z,62.52
2023-03-06T06:43:06.772Z,62.58
2023-03-06T06:45:32.904Z,62.65
2023-03-06T06:47:59.217Z,62.62
2023-03-06T06:50:25.377Z,62.22
2023-03-06T06:52:51.538Z,62.63
2023-03-06T06:55:17.712Z,62.73
2023-03-06T06:57:43.868Z,62.37
2023-03-06T07:00:10.030Z,62.68
2023-03-06T07:02:37.650Z,62.61
2023-03-06T07:05:05.457Z,62.28
2023-03-06T07:07:31.862Z,62.61
2023-03-06T07:09:58.030Z,62.42
2023-03-06T07:12:24.233Z,62.62
2023-03-06T07:14:50.428Z,62.46
2023-03-06T07:17:16.534Z,62.52
2023-03-06T07:19:42.717Z,62.67
2023-03-06T07:22:09.417Z,62.57
2023-03-06T07:24:35.546Z,62.59
2023-03-06T07:27:01.716Z,62.60
2023-03-06T07:29:27.862Z,62.61
2023-03-06T07:31:53.970Z,62.59
2023-03-06T07:34:20.097Z,62.68
2023-03-06T07:36:46.279Z,62.58
2023-03-06T07:39:12.495Z,62.26
2023-03-06T07:41:38.624Z,62.37
2023-03-06T07:44:04.842Z,62.52
2023-03-06T07:46:31.068Z,62.27
2023-03-06T07:48:57.271Z,62.70
2023-03-06T07:51:23.480Z,62.67
2023-03-06T07:53:49.600Z,62.29
2023-03-06T07:56:15.766Z,62.25
2023-03-06T07:58:41.913Z,62.20
2023-03-06T08:01:08.084Z,62.53
2023-03-06T08:03:34.210Z,62.25
2023-03-06T08:06:00.387Z,62.39
2023-03-06T08:08:26.504Z,62.29
2023-03-06T08:10:52.613Z,62.41
2023-03-06T08:13:18.757Z,62.33
2023-03-06T08:15:44.855Z,62.35
2023-03-06T08:18:10.939Z,62.31
2023-03-06T08:20:37.051Z,62.56
2023-03-06T08:23:03.152Z,62.62
2023-03-06T08:25:29.255Z,62.33
2023-03-06T08:27:55.387Z,62.23
2023-03-06T08:30:21.519Z,62.63
2023-03-06T08:32:47.632Z,62.51
2023-03-06T08:35:13.766Z,62.43
2023-03-06T08:37:39.949Z,62.24
2023-03-06T08:40:06.139Z,62.44
2023-03-06T08:42:32.354Z,62.57
2023-03-06T08:44:58.595Z,62.51
2023-03-06T08:47:24.752Z,62.52
2023-03-06T08:49:50.885Z,62.54
2023-03-06T08:52:17.061Z,62.59
2023-03-06T08:54:43.187Z,62.38
2023-03-06T08:57:09.355Z,62.60
2023-03-06T08:59:35.519Z,62.59
2023-03-06T09:02:01.670Z,62.39
2023-03-06T09:04:27.820Z,62.15
2023-03-06T09:06:55.492Z,62.32
2023-03-06T09:09:21.736Z,62.14
2023-03-06T09:11:48.167Z,62.52
2023-03-06T09:14:14.369Z,62.19
2023-03-06T09:16:40.503Z,62.48
2023-03-06T09:19:06.657Z,62.09
2023-03-06T09:21:32.810Z,62.04
2023-03-06T09:23:58.915Z,62.35
2023-03-06T09:26:39.695Z,62.36
2023-03-06T09:29:11.030Z,62.47
2023-03-06T09:31:37.242Z,62.28
2023-03-06T09:34:03.387Z,62.47
2023-03-06T09:36:29.583Z,62.53
2023-03-06T09:38:55.778Z,62.50
2023-03-06T09:41:22.936Z,62.05
2023-03-06T09:43:49.150Z,62.49
2023-03-06T09:46:15.365Z,62.50
2023-03-06T09:48:41.614Z,62.10
2023-03-06T09:51:07.725Z,62.39
2023-03-06T09:53:33.837Z,62.44
2023-03-06T09:55:59.937Z,62.48
2023-03-06T09:58:26.040Z,62.33
2023-03-06T10:00:52.168Z,62.08
2023-03-06T10:03:18.425Z,62.34
2023-03-06T10:05:44.606Z,62.44
2023-03-06T10:08:10.753Z,62.37
2023-03-06T10:10:36.875Z,62.50
2023-03-06T10:13:02.989Z,62.44
2023-03-06T10:15:29.174Z,62.24
2023-03-06T10:17:55.327Z,62.25
2023-03-06T10:20:21.634Z,62.44
2023-03-06T10:23:00.054Z,62.07
2023-03-06T10:25:27.072Z,62.04
2023-03-06T10:27:53.250Z,62.05
2023-03-06T10:30:19.360Z,62.02
2023-03-06T10:32:49.006Z,62.34
2023-03-06T10:35:15.605Z,62.01
2023-03-06T10:37:41.791Z,62.13
2023-03-06T10:40:08.529Z,62.12
2023-03-06T10:42:34.721Z,62.36
2023-03-06T10:45:00.819Z,62.32
2023-03-06T10:47:26.932Z,62.33
2023-03-06T10:49:53.065Z,62.33
2023-03-06T10:52:19.226Z,62.36
2023-03-06T10:54:45.389Z,62.41
2023-03-06T10:57:11.570Z,62.38
2023-03-06T10:59:37.700Z,62.22
2023-03-06T11:02:03.945Z,62.24
2023-03-06T11:04:30.246Z,62.02
2023-03-06T11:06:56.434Z,62.46
2023-03-06T11:09:22.631Z,61.94
2023-03-06T11:11:48.789Z,62.07
2023-03-06T11:14:14.975Z,62.38
2023-03-06T11:16:41.085Z,62.03
2023-03-06T11:19:07.226Z,62.37
2023-03-06T11:21:33.359Z,62.22
2023-03-06T11:23:59.489Z,62.43
2023-03-06T11:26:25.937Z,62.39
2023-03-06T11:28:52.078Z,62.36
2023-03-06T11:31:18.273Z,62.37
2023-03-06T11:33:44.441Z,62.12
2023-03-06T11:36:10.630Z,62.34
2023-03-06T11:38:36.776Z,62.24
2023-03-06T11:41:02.933Z,62.03
2023-03-06T11:43:29.083Z,62.31
2023-03-06T11:45:55.177Z,62.21
2023-03-06T11:48:21.296Z,62.13
2023-03-06T11:50:47.416Z,62.36
2023-03-06T11:53:13.525Z,62.22
2023-03-06T11:55:39.646Z,62.35
2023-03-06T11:58:05.773Z,62.16
2023-03-06T12:00:31.949Z,62.26
2023-03-06T12:02:58.076Z,62.25
2023-03-06T12:05:24.230Z,62.22
2023-03-06T12:07:50.390Z,62.06
2023-03-06T12:10:16.577Z,62.19
2023-03-06T12:12:45.110Z,62.31
2023-03-06T12:15:11.221Z,62.31
2023-03-06T12:17:37.338Z,61.92
2023-03-06T12:20:03.440Z,62.25
2023-03-06T12:22:31.188Z,62.34
2023-03-06T12:24:57.485Z,62.03
2023-03-06T12:27:23.596Z,62.24
2023-03-06T12:29:49.700Z,62.19
2023-03-06T12:32:15.898Z,62.29
2023-03-06T12:34:42.062Z,61.90
2023-03-06T12:37:08.175Z,62.06
2023-03-06T12:39:34.784Z,62.28
2023-03-06T12:42:00.944Z,61.88
2023-03-06T12:44:27.169Z,62.22
2023-03-06T12:46:53.301Z,62.14
2023-03-06T12:49:31.130Z,61.86
2023-03-06T12:51:58.341Z,62.18
2023-03-06T12:54:24.435Z,62.30
2023-03-06T12:56:50.616Z,62.28
2023-03-06T12:59:16.816Z,62.19
2023-03-06T13:01:42.994Z,61.93
2023-03-06T13:04:09.148Z,62.16
2023-03-06T13:06:39.192Z,62.20
2023-03-06T13:09:10.986Z,62.18
2023-03-06T13:11:37.169Z,62.21
2023-03-06T13:14:03.301Z,62.29
2023-03-06T13:16:29.499Z,62.11
2023-03-06T13:18:55.731Z,62.19
2023-03-06T13:21:21.901Z,61.81
2023-03-06T13:23:48.025Z,62.24
2023-03-06T13:26:14.252Z,61.96
2023-03-06T13:28:40.437Z,62.07
2023-03-06T13:31:10.580Z,61.85
2023-03-06T13:33:38.846Z,62.11
2023-03-06T13:36:04.977Z,61.84
2023-03-06T13:38:33.885Z,62.12
2023-03-06T13:41:00.197Z,62.08
2023-03-06T13:43:26.380Z,61.96
2023-03-06T13:45:52.596Z,61.96
2023-03-06T13:48:41.575Z,61.87
2023-03-06T13:51:05.275Z,62.03
2023-03-06T13:53:31.394Z,61.74
2023-03-06T13:55:57.509Z,61.71
2023-03-06T13:58:23.604Z,62.00
2023-03-06T14:00:49.755Z,61.82
2023-03-06T14:03:15.864Z,61.85
2023-03-06T14:05:42.010Z,62.03
2023-03-06T14:08:08.230Z,62.04
2023-03-06T14:10:34.356Z,62.17
2023-03-06T14:13:00.458Z,62.06
2023-03-06T14:15:26.588Z,62.12
2023-03-06T14:17:52.681Z,61.99
2023-03-06T14:20:18.812Z,61.84
2023-03-06T14:22:45.039Z,62.08
2023-03-06T14:25:11.140Z,61.72
2023-03-06T14:27:37.230Z,62.13
2023-03-06T14:30:03.370Z,62.04
2023-03-06T14:32:29.527Z,62.05
2023-03-06T14:34:55.723Z,61.96
2023-03-06T14:37:21.835Z,61.82
2023-03-06T14:39:47.959Z,62.10
2023-03-06T14:42:14.088Z,61.78
2023-03-06T14:44:40.390Z,61.66
2023-03-06T14:47:06.495Z,61.93
2023-03-06T14:49:32.634Z,61.87
2023-03-06T14:51:58.761Z,61.73
2023-03-06T14:54:24.861Z,61.77
2023-03-06T14:56:50.965Z,61.65
2023-03-06T14:59:17.110Z,61.60
2023-03-06T15:01:43.447Z,61.92
2023-03-06T15:04:09.554Z,61.76
2023-03-06T15:06:35.688Z,61.63
2023-03-06T15:09:01.822Z,61.71
2023-03-06T15:11:27.934Z,62.01
2023-03-06T15:13:54.060Z,61.75
2023-03-06T15:16:20.295Z,61.93
2023-03-06T15:18:46.464Z,61.73
2023-03-06T15:21:12.593Z,61.82
2023-03-06T15:23:38.727Z,61.75
2023-03-06T15:26:04.837Z,62.00
2023-03-06T15:28:31.005Z,61.70
2023-03-06T15:30:57.116Z,62.03
2023-03-06T15:33:23.240Z,61.65
2023-03-06T15:35:49.387Z,62.02
2023-03-06T15:38:15.579Z,61.83
2023-03-06T15:40:41.691Z,61.60
2023-03-06T15:43:07.875Z,61.78
2023-03-06T15:45:34.061Z,61.72
2023-03-06T15:48:00.178Z,61.73
2023-03-06T15:50:26.578Z,61.86
2023-03-06T15:52:52.684Z,61.96
2023-03-06T15:55:20.362Z,61.63
2023-03-06T15:57:46.492Z,61.52
2023-03-06T16:00:26.461Z,61.70
2023-03-06T16:02:53.388Z,61.98
2023-03-06T16:05:19.545Z,61.90
2023-03-06T16:07:47.596Z,61.70
2023-03-06T16:10:13.763Z,61.81
2023-03-06T16:12:39.933Z,61.95
2023-03-06T16:15:09.956Z,61.50
2023-03-06T16:17:36.230Z,61.59
2023-03-06T16:20:02.420Z,61.88
2023-03-06T16:22:28.561Z,61.93
2023-03-06T16:24:54.718Z,61.92
2023-03-06T16:27:20.838Z,61.91
2023-03-06T16:29:46.976Z,61.59
2023-03-06T16:32:13.144Z,61.92
2023-03-06T16:34:39.286Z,61.92
2023-03-06T16:37:05.391Z,61.91
2023-03-06T16:39:31.546Z,61.81
2023-03-06T16:41:57.695Z,61.52
2023-03-06T16:44:23.858Z,61.91
2023-03-06T16:46:50.078Z,61.78
2023-03-06T16:49:16.312Z,61.82
2023-03-06T16:51:42.465Z,61.93
2023-03-06T16:54:08.700Z,61.74
2023-03-06T16:56:34.810Z,61.80
2023-03-06T16:59:00.917Z,61.83
2023-03-06T17:01:27.098Z,61.88
2023-03-06T17:03:53.259Z,61.78
2023-03-06T17:06:19.356Z,61.83
2023-03-06T17:08:45.474Z,61.55
2023-03-06T17:11:11.570Z,61.86
2023-03-06T17:13:37.660Z,61.80
2023-03-06T17:16:05.961Z,61.77
2023-03-06T17:18:32.084Z,61.59
2023-03-06T17:20:58.210Z,61.82
2023-03-06T17:23:24.322Z,61.74
2023-03-06T17:25:50.416Z,61.82
2023-03-06T17:28:16.511Z,61.75
2023-03-06T17:30:42.691Z,61.61
2023-03-06T17:33:08.906Z,61.39
2023-03-06T17:35:35.102Z,61.78
2023-03-06T17:38:01.267Z,61.81
2023-03-06T17:40:27.385Z,61.58
2023-03-06T17:42:53.500Z,61.47
2023-03-06T17:45:19.689Z,61.72
2023-03-06T17:47:47.394Z,61.73
2023-03-06T17:50:15.035Z,61.76
2023-03-06T17:52:41.844Z,61.75
2023-03-06T17:55:08.033Z,61.43
2023-03-06T17:57:34.195Z,61.65
2023-03-06T18:00:00.378Z,61.78
2023-03-06T18:02:26.551Z,61.46
2023-03-06T18:04:52.704Z,61.87
2023-03-06T18:07:18.969Z,61.78
2023-03-06T18:09:45.077Z,61.71
2023-03-06T18:12:11.178Z,61.37
2023-03-06T18:14:37.333Z,61.55
2023-03-06T18:17:03.477Z,61.84
2023-03-06T18:19:29.618Z,61.74
2023-03-06T18:21:55.733Z,61.87
2023-03-06T18:24:21.847Z,61.47
2023-03-06T18:26:47.981Z,61.85
2023-03-06T18:29:14.166Z,61.72
2023-03-06T18:31:40.308Z,61.64
2023-03-06T18:34:06.494Z,61.70
2023-03-06T18:36:32.690Z,61.52
2023-03-06T18:38:58.803Z,61.61
2023-03-06T18:41:24.917Z,61.72
2023-03-06T18:43:51.116Z,61.87
2023-03-06T18:46:17.260Z,61.56
2023-03-06T18:48:43.380Z,61.78
2023-03-06T18:51:09.581Z,61.89
2023-03-06T18:53:35.692Z,61.64
2023-03-06T18:56:01.802Z,61.82
2023-03-06T18:58:28.312Z,61.46
2023-03-06T19:00:54.513Z,61.78
2023-03-06T19:03:20.652Z,61.46
2023-03-06T19:05:46.830Z,61.79
2023-03-06T19:08:12.939Z,61.57
2023-03-06T19:10:39.049Z,61.71
2023-03-06T19:13:05.266Z,61.45
2023-03-06T19:15:31.400Z,61.59
2023-03-06T19:17:57.496Z,61.78
2023-03-06T19:20:23.596Z,61.83
2023-03-06T19:22:49.711Z,61.83
2023-03-06T19:25:15.824Z,61.70
2023-03-06T19:27:41.956Z,61.67
2023-03-06T19:30:08.143Z,61.84
2023-03-06T19:32:34.299Z,61.57
2023-03-06T19:35:00.467Z,61.83
2023-03-06T19:37:26.576Z,61.72
2023-03-06T19:39:52.691Z,61.40
2023-03-06T19:42:18.806Z,61.72
2023-03-06T19:44:44.932Z,61.64
2023-03-06T19:47:11.107Z,61.47
2023-03-06T19:49:37.262Z,61.40
2023-03-06T19:52:03.352Z,61.45
2023-03-06T19:54:31.447Z,61.47
2023-03-06T19:56:58.556Z,61.67
2023-03-06T19:59:24.732Z,61.58
2023-03-06T20:01:50.884Z,61.73
2023-03-06T20:04:17.320Z,61.53
2023-03-06T20:06:43.483Z,61.52
2023-03-06T20:09:09.611Z,61.63
2023-03-06T20:11:35.729Z,61.64
2023-03-06T20:14:01.877Z,61.51
2023-03-06T20:16:28.093Z,61.60
2023-03-06T20:18:54.304Z,61.34
2023-03-06T20:21:20.547Z,61.25
2023-03-06T20:23:46.693Z,61.34
2023-03-06T20:26:12.869Z,61.42
2023-03-06T20:28:39.354Z,61.49
2023-03-06T20:31:05.615Z,61.54
2023-03-06T20:33:31.760Z,61.32
2023-03-06T20:35:58.022Z,61.32
2023-03-06T20:38:24.132Z,61.37
2023-03-06T20:40:50.670Z,61.33
2023-03-06T20:43:16.831Z,61.15
2023-03-06T20:45:42.953Z,61.21
2023-03-06T20:48:09.101Z,61.34
2023-03-06T20:50:35.237Z,61.57
2023-03-06T20:53:01.373Z,61.24
2023-03-06T20:55:27.514Z,61.53
2023-03-06T20:57:53.716Z,61.60
2023-03-06T21:00:19.923Z,61.27
2023-03-06T21:02:46.030Z,61.26
2023-03-06T21:05:12.188Z,61.18
2023-03-06T21:07:38.323Z,61.56
2023-03-06T21:10:04.465Z,61.16
2023-03-06T21:12:30.586Z,61.47
2023-03-06T21:16:39.886Z,61.59
2023-03-06T21:19:05.991Z,61.49
2023-03-06T21:21:32.177Z,61.35
2023-03-06T21:23:58.326Z,61.33
2023-03-06T21:26:24.462Z,61.22
2023-03-06T21:28:50.567Z,61.44
2023-03-06T21:31:16.774Z,61.35
2023-03-06T21:33:42.893Z,61.47
2023-03-06T21:36:09.032Z,61.56
2023-03-06T21:38:35.185Z,61.38
2023-03-06T21:41:01.286Z,61.33
2023-03-06T21:43:27.466Z,61.36
2023-03-06T21:45:53.662Z,61.33
2023-03-06T21:48:19.843Z,61.45
2023-03-06T21:50:45.952Z,61.44
2023-03-06T21:53:12.069Z,61.38
2023-03-06T21:55:38.255Z,61.12
2023-03-06T21:58:04.358Z,61.35
2023-03-06T22:00:30.695Z,61.43
2023-03-06T22:02:57.882Z,61.53
2023-03-06T22:05:24.015Z,61.48
2023-03-06T22:07:50.408Z,61.46
2023-03-06T22:10:16.619Z,61.27
2023-03-06T22:12:42.728Z,61.44
2023-03-06T22:15:08.862Z,61.48
2023-03-06T22:17:34.995Z,61.46
2023-03-06T22:20:01.110Z,61.45
2023-03-06T22:22:27.238Z,61.12
2023-03-06T22:24:53.417Z,61.35
2023-03-06T22:27:19.520Z,61.38
2023-03-06T22:29:45.923Z,61.10
2023-03-06T22:32:12.173Z,61.46
2023-03-06T22:34:38.390Z,61.23
2023-03-06T22:37:04.501Z,61.51
2023-03-06T22:39:30.633Z,61.15
2023-03-06T22:41:56.785Z,61.52
2023-03-06T22:44:22.953Z,61.45
2023-03-06T22:46:49.142Z,61.33
2023-03-06T22:49:51.903Z,61.20
2023-03-06T22:52:18.056Z,61.05
2023-03-06T22:54:44.187Z,61.04
2023-03-06T22:57:10.685Z,60.96
2023-03-06T22:59:36.785Z,61.11
2023-03-06T23:02:02.899Z,61.19
2023-03-06T23:04:29.177Z,61.07
2023-03-06T23:06:55.331Z,61.45
2023-03-06T23:09:21.493Z,61.43
2023-03-06T23:11:47.686Z,61.25
2023-03-06T23:14:13.847Z,61.04
2023-03-06T23:16:39.964Z,61.06
2023-03-06T23:19:06.084Z,61.22
2023-03-06T23:21:32.289Z,61.07
2023-03-06T23:23:58.395Z,61.04
2023-03-06T23:26:24.858Z,61.15
2023-03-06T23:28:51.045Z,60.93
2023-03-06T23:31:17.193Z,61.38
2023-03-06T23:33:43.370Z,61.21
2023-03-06T23:36:09.543Z,61.21
2023-03-06T23:40:05.165Z,60.98
2023-03-06T23:42:31.287Z,61.36
2023-03-06T23:44:57.472Z,61.07
2023-03-06T23:47:23.599Z,61.01
2023-03-06T23:49:49.705Z,61.32
2023-03-06T23:52:15.846Z,61.13
2023-03-06T23:54:41.999Z,61.05
2023-03-06T23:57:08.271Z,61.18
